Time;durP1;ratioP1;P1;durP2;ratioP2;P2;SDS_P1;SDS_P2;PMS_P1;PMS_P2;Temp;Humidity;BMP_temperature;BMP_pressure;BME280_temperature;BME280_humidity;BME280_pressure;Samples;Min_cycle;Max_cycle;Signal;HPM_P1;HPM_P2
2022/01/13 00:02:15;;;;;;;31.73;12.57;;;4.90;99.90;;;;;;5083664;28;20110;-59
2022/01/13 00:04:41;;;;;;;31.77;13.38;;;4.90;99.90;;;;;;5079847;28;20390;-60
2022/01/13 00:07:09;;;;;;;26.77;12.63;;;4.90;99.90;;;;;;5060396;28;20044;-60
2022/01/13 00:09:35;;;;;;;31.88;13.18;;;4.90;99.90;;;;;;5081205;28;20044;-59
2022/01/13 00:12:02;;;;;;;32.33;13.93;;;5.00;99.90;;;;;;5077758;28;20040;-59
2022/01/13 00:14:56;;;;;;;28.17;13.80;;;4.90;99.90;;;;;;5080956;28;20051;-59
2022/01/13 00:19:56;;;;;;;31.52;14.60;;;4.90;99.90;;;;;;5078355;28;20310;-60
2022/01/13 00:25:00;;;;;;;34.85;15.48;;;5.00;99.90;;;;;;5065932;28;20043;-60
2022/01/13 00:27:28;;;;;;;36.05;14.75;;;5.00;99.90;;;;;;5087145;28;20043;-59
2022/01/13 00:29:56;;;;;;;38.42;16.35;;;5.00;99.90;;;;;;5080906;28;20050;-59
2022/01/13 00:32:25;;;;;;;35.00;15.27;;;5.00;99.90;;;;;;5064947;28;20048;-61
2022/01/13 00:34:51;;;;;;;39.55;16.55;;;5.00;99.90;;;;;;5065303;28;20049;-60
2022/01/13 00:37:17;;;;;;;38.05;16.60;;;5.00;99.90;;;;;;5048107;28;20036;-59
2022/01/13 00:39:42;;;;;;;40.05;15.68;;;5.10;99.90;;;;;;5083707;28;20048;-60
2022/01/13 00:42:08;;;;;;;39.30;16.60;;;5.10;99.90;;;;;;5066207;28;20037;-61
2022/01/13 00:44:37;;;;;;;48.45;18.92;;;5.10;99.90;;;;;;5068116;28;20482;-61
2022/01/13 00:47:06;;;;;;;44.60;16.45;;;5.10;99.90;;;;;;5084556;28;20059;-61
2022/01/13 00:49:32;;;;;;;46.15;17.40;;;5.10;99.90;;;;;;5087003;28;20043;-60
2022/01/13 00:51:59;;;;;;;43.17;17.17;;;5.10;99.90;;;;;;5082632;28;20036;-60
2022/01/13 00:54:24;;;;;;;53.30;18.65;;;5.10;99.90;;;;;;5066573;28;20051;-60
2022/01/13 00:56:51;;;;;;;40.83;16.60;;;5.10;99.90;;;;;;5078290;28;20024;-60
2022/01/13 00:59:17;;;;;;;41.83;17.50;;;5.10;99.90;;;;;;5084138;28;20087;-61
2022/01/13 01:01:46;;;;;;;45.20;18.02;;;5.10;99.90;;;;;;5085680;28;20032;-61
2022/01/13 01:04:12;;;;;;;44.38;17.15;;;5.10;99.90;;;;;;5070636;28;20032;-60
2022/01/13 01:06:38;;;;;;;46.50;19.00;;;5.20;99.90;;;;;;5086072;28;20130;-61
2022/01/13 01:09:06;;;;;;;46.92;18.67;;;5.20;99.90;;;;;;5085738;28;20599;-61
2022/01/13 01:11:31;;;;;;;41.92;16.58;;;5.10;99.90;;;;;;5087304;28;20048;-60
2022/01/13 01:13:59;;;;;;;49.38;19.25;;;5.10;99.90;;;;;;5083968;28;20086;-60
2022/01/13 01:16:26;;;;;;;42.70;16.77;;;5.10;99.90;;;;;;5079406;28;20079;-60
2022/01/13 01:19:03;;;;;;;51.47;18.90;;;5.10;99.90;;;;;;5082552;28;20111;-61
2022/01/13 01:24:15;;;;;;;68.00;22.95;;;5.20;99.90;;;;;;5085465;28;20049;-61
2022/01/13 01:31:46;;;;;;;45.38;18.42;;;5.20;99.90;;;;;;5084064;28;20126;-61
2022/01/13 01:36:51;;;;;;;50.88;19.55;;;5.20;99.90;;;;;;5080452;28;20122;-61
2022/01/13 01:39:18;;;;;;;46.38;19.33;;;5.20;99.90;;;;;;5082356;28;20485;-61
2022/01/13 01:41:46;;;;;;;46.55;18.95;;;5.20;99.90;;;;;;5082731;28;20032;-59
2022/01/13 01:44:19;;;;;;;47.83;19.38;;;5.20;99.90;;;;;;5083068;28;20043;-61
2022/01/13 01:46:46;;;;;;;49.38;20.23;;;5.30;99.90;;;;;;5064254;28;20054;-60
2022/01/13 01:49:20;;;;;;;52.85;20.75;;;5.20;99.90;;;;;;5081040;28;20781;-60
2022/01/13 01:52:05;;;;;;;48.92;20.20;;;5.30;99.90;;;;;;5067587;28;20101;-60
2022/01/13 01:54:30;;;;;;;51.70;19.48;;;5.30;99.90;;;;;;5083686;28;20055;-61
2022/01/13 01:56:57;;;;;;;53.50;20.60;;;5.30;99.90;;;;;;5081966;28;20020;-59
2022/01/13 01:59:28;;;;;;;55.17;19.13;;;5.30;99.90;;;;;;5079636;28;20631;-61
2022/01/13 02:01:56;;;;;;;62.45;22.38;;;5.30;99.90;;;;;;5083392;28;20024;-60
2022/01/13 02:04:25;;;;;;;49.00;18.83;;;5.30;99.90;;;;;;5080454;28;20043;-60
2022/01/13 02:06:51;;;;;;;42.28;16.85;;;5.30;99.90;;;;;;5082372;28;20044;-60
2022/01/13 02:09:18;;;;;;;58.75;21.05;;;5.30;99.90;;;;;;5084247;28;20063;-60
2022/01/13 02:11:46;;;;;;;50.28;19.67;;;5.30;99.90;;;;;;5061472;28;20458;-61
2022/01/13 02:17:21;;;;;;;52.55;18.23;;;5.30;99.90;;;;;;5081335;28;20119;-61
2022/01/13 02:19:48;;;;;;;80.85;18.98;;;5.30;99.90;;;;;;5050388;28;20044;-60
2022/01/13 02:22:13;;;;;;;64.15;19.55;;;5.20;99.90;;;;;;5076454;28;20040;-61
2022/01/13 02:24:39;;;;;;;69.15;19.55;;;5.20;99.90;;;;;;5084634;28;20397;-60
2022/01/13 02:27:07;;;;;;;70.15;18.77;;;5.10;99.90;;;;;;5067796;28;20090;-60
2022/01/13 02:29:34;;;;;;;58.70;17.85;;;5.10;99.90;;;;;;5078938;28;20093;-61
2022/01/13 02:32:00;;;;;;;68.63;17.88;;;5.10;99.90;;;;;;5061541;28;20040;-60
2022/01/13 02:34:26;;;;;;;59.25;17.17;;;5.10;99.90;;;;;;5080996;28;20131;-60
2022/01/13 02:36:57;;;;;;;92.88;20.42;;;5.00;99.90;;;;;;5063635;28;20062;-60
2022/01/13 02:39:27;;;;;;;45.17;15.82;;;5.10;99.90;;;;;;5081278;28;20032;-61
2022/01/13 02:41:54;;;;;;;58.95;16.95;;;5.00;99.90;;;;;;5066599;28;20273;-61
2022/01/13 02:44:22;;;;;;;96.80;18.83;;;5.00;99.90;;;;;;5077466;28;20389;-59
2022/01/13 02:49:16;;;;;;;75.10;15.48;;;5.00;99.90;;;;;;5081489;28;20048;-57
2022/01/13 02:51:45;;;;;;;54.00;14.75;;;5.00;99.90;;;;;;5076346;28;20416;-59
2022/01/13 02:54:12;;;;;;;74.35;15.35;;;5.00;99.90;;;;;;5087277;28;20040;-58
2022/01/13 02:56:39;;;;;;;75.13;16.55;;;4.90;99.90;;;;;;5082486;28;20134;-59
2022/01/13 02:59:06;;;;;;;73.97;17.00;;;4.90;99.90;;;;;;5076545;28;20039;-58
2022/01/13 03:01:36;;;;;;;58.95;15.90;;;5.00;99.90;;;;;;5063671;28;20126;-59
2022/01/13 03:04:06;;;;;;;64.95;16.35;;;5.00;99.90;;;;;;5079620;28;20039;-59
2022/01/13 03:06:37;;;;;;;74.47;17.52;;;4.90;99.90;;;;;;5085437;28;20048;-59
2022/01/13 03:09:04;;;;;;;54.92;16.05;;;5.00;99.90;;;;;;5075979;28;20040;-59
2022/01/13 03:11:36;;;;;;;64.05;16.98;;;5.00;99.90;;;;;;5082802;28;20097;-59
2022/01/13 03:14:11;;;;;;;55.85;16.27;;;5.10;99.90;;;;;;5079638;28;20042;-58
2022/01/13 03:16:42;;;;;;;65.68;17.40;;;5.00;99.90;;;;;;5061725;28;20036;-59
2022/01/13 03:19:08;;;;;;;62.17;16.85;;;5.00;99.90;;;;;;5082041;28;20059;-60
2022/01/13 03:21:34;;;;;;;60.45;16.70;;;5.10;99.90;;;;;;5082101;28;20117;-59
2022/01/13 03:24:02;;;;;;;80.60;19.60;;;5.10;99.90;;;;;;5083213;28;20039;-60
2022/01/13 03:26:28;;;;;;;55.75;16.02;;;5.10;99.90;;;;;;5082240;28;20043;-60
2022/01/13 03:29:04;;;;;;;56.75;17.63;;;5.10;99.90;;;;;;5066716;28;20089;-60
2022/01/13 03:31:30;;;;;;;81.25;18.05;;;5.10;99.90;;;;;;5082345;28;20036;-60
2022/01/13 03:33:56;;;;;;;89.85;19.02;;;5.10;99.90;;;;;;5046964;28;20486;-60
2022/01/13 03:36:21;;;;;;;82.88;18.52;;;5.10;99.90;;;;;;5064836;28;20484;-59
2022/01/13 03:38:47;;;;;;;111.68;18.27;;;5.10;99.90;;;;;;5062417;28;20502;-60
2022/01/13 03:41:13;;;;;;;97.70;18.17;;;5.10;99.90;;;;;;5064839;28;20268;-59
2022/01/13 03:43:40;;;;;;;89.70;18.40;;;5.10;99.90;;;;;;5078280;28;20063;-60
2022/01/13 03:46:07;;;;;;;83.53;18.55;;;5.10;99.90;;;;;;5078861;28;20482;-60
2022/01/13 03:48:33;;;;;;;78.60;21.05;;;5.20;99.90;;;;;;5081506;28;20032;-60
2022/01/13 03:50:59;;;;;;;93.82;19.58;;;5.20;99.90;;;;;;5083706;28;20044;-60
2022/01/13 03:53:30;;;;;;;102.75;20.65;;;5.20;99.90;;;;;;5084486;28;20541;-60
2022/01/13 03:56:08;;;;;;;81.47;18.13;;;5.10;99.90;;;;;;5083175;28;20040;-59
2022/01/13 03:59:00;;;;;;;103.07;20.48;;;5.20;99.90;;;;;;5086244;28;20044;-61
2022/01/13 04:01:51;;;;;;;88.93;20.05;;;5.20;99.90;;;;;;5061574;28;20532;-59
2022/01/13 04:04:17;;;;;;;156.45;26.40;;;5.20;99.90;;;;;;5085579;28;20039;-59
2022/01/13 04:06:44;;;;;;;83.57;20.90;;;5.20;99.90;;;;;;5077190;28;20044;-59
2022/01/13 04:09:33;;;;;;;82.45;18.90;;;5.20;99.90;;;;;;5079969;28;20044;-60
2022/01/13 04:12:03;;;;;;;69.07;18.40;;;5.20;99.90;;;;;;5079458;28;20031;-59
2022/01/13 04:14:56;;;;;;;95.85;21.75;;;5.20;99.90;;;;;;5078198;28;20047;-59
2022/01/13 04:17:23;;;;;;;101.97;23.73;;;5.20;99.90;;;;;;5085351;28;20533;-59
2022/01/13 04:19:50;;;;;;;82.28;21.75;;;5.20;99.90;;;;;;5062534;28;20043;-59
2022/01/13 04:22:17;;;;;;;112.50;25.13;;;5.30;99.90;;;;;;5085958;28;20040;-59
2022/01/13 04:24:49;;;;;;;75.70;22.15;;;5.30;99.90;;;;;;5080876;28;20091;-59
2022/01/13 04:27:24;;;;;;;96.53;22.33;;;5.30;99.90;;;;;;5085483;28;20499;-59
2022/01/13 04:30:11;;;;;;;106.10;23.52;;;5.40;99.90;;;;;;5059165;28;20057;-61
2022/01/13 04:32:36;;;;;;;104.53;21.15;;;5.40;99.90;;;;;;5063888;28;20086;-59
2022/01/13 04:35:01;;;;;;;134.48;24.08;;;5.40;99.90;;;;;;5047939;28;20076;-60
2022/01/13 04:37:27;;;;;;;75.18;19.85;;;5.40;99.90;;;;;;5082666;28;20036;-59
2022/01/13 04:39:53;;;;;;;87.00;20.85;;;5.40;99.90;;;;;;5082685;28;20045;-59
2022/01/13 04:42:18;;;;;;;84.05;20.73;;;5.40;99.90;;;;;;5076982;28;20036;-58
2022/01/13 04:44:44;;;;;;;76.80;19.75;;;5.40;99.90;;;;;;5083901;28;20028;-60
2022/01/13 04:47:10;;;;;;;105.10;22.80;;;5.40;99.90;;;;;;5064627;28;20523;-59
2022/01/13 04:49:35;;;;;;;80.57;21.35;;;5.40;99.90;;;;;;5082158;28;20441;-60
2022/01/13 04:52:02;;;;;;;157.98;29.48;;;5.40;99.90;;;;;;5062581;28;20093;-61
2022/01/13 04:54:27;;;;;;;76.90;21.90;;;5.40;99.90;;;;;;5062318;28;20040;-61
2022/01/13 04:57:06;;;;;;;80.95;21.52;;;5.40;99.90;;;;;;5079929;28;20066;-61
2022/01/13 04:59:32;;;;;;;118.72;24.50;;;5.40;99.90;;;;;;5083489;28;20047;-60
2022/01/13 05:02:00;;;;;;;68.90;20.88;;;5.50;99.90;;;;;;5074947;28;20491;-59
2022/01/13 05:04:26;;;;;;;103.78;25.23;;;5.50;99.90;;;;;;5067137;28;20050;-61
2022/01/13 05:06:52;;;;;;;92.28;24.05;;;5.50;99.90;;;;;;5063692;23;20046;-55
2022/01/13 05:09:17;;;;;;;103.50;25.85;;;5.50;99.90;;;;;;4974052;28;20085;-56
2022/01/13 05:11:43;;;;;;;89.45;24.25;;;5.50;99.90;;;;;;4982917;28;20035;-56
2022/01/13 05:14:09;;;;;;;98.32;26.90;;;5.60;99.90;;;;;;5053284;28;20038;-54
2022/01/13 05:16:51;;;;;;;90.38;26.98;;;5.60;99.90;;;;;;4995556;28;20057;-53
2022/01/13 05:19:22;;;;;;;106.85;28.60;;;5.60;99.90;;;;;;4987410;28;20129;-56
2022/01/13 05:24:20;;;;;;;83.90;26.80;;;5.60;99.90;;;;;;4971543;28;20046;-56
2022/01/13 05:26:45;;;;;;;89.05;26.83;;;5.70;99.90;;;;;;4981953;28;20068;-56
2022/01/13 05:29:17;;;;;;;95.53;27.83;;;5.70;99.90;;;;;;4979950;28;20266;-56
2022/01/13 05:31:42;;;;;;;108.13;29.75;;;5.80;99.90;;;;;;4990406;28;20049;-56
2022/01/13 05:34:08;;;;;;;89.50;27.35;;;5.80;99.90;;;;;;4970286;28;20045;-58
2022/01/13 05:36:34;;;;;;;120.72;31.65;;;5.80;99.90;;;;;;4977899;28;20041;-56
2022/01/13 05:38:59;;;;;;;94.70;29.55;;;5.80;99.90;;;;;;4982541;28;20079;-53
2022/01/13 05:41:25;;;;;;;88.35;29.27;;;5.90;99.90;;;;;;4957450;28;20042;-53
2022/01/13 05:43:51;;;;;;;88.55;29.65;;;5.90;99.90;;;;;;5047375;28;20046;-53
2022/01/13 05:46:17;;;;;;;84.68;30.63;;;5.90;99.90;;;;;;4980945;28;20536;-56
2022/01/13 05:48:42;;;;;;;80.70;29.67;;;5.90;99.90;;;;;;4958334;28;20057;-56
2022/01/13 05:51:08;;;;;;;98.07;30.35;;;6.00;99.90;;;;;;4979093;28;20100;-56
2022/01/13 05:53:34;;;;;;;91.40;30.42;;;6.00;99.90;;;;;;4987196;28;20134;-55
2022/01/13 05:55:59;;;;;;;91.78;29.83;;;6.00;99.90;;;;;;4972867;28;20038;-56
2022/01/13 05:58:25;;;;;;;80.40;28.77;;;6.10;99.90;;;;;;4960227;28;20057;-53
2022/01/13 06:00:51;;;;;;;83.95;30.52;;;6.10;99.90;;;;;;4952723;28;21277;-55
2022/01/13 06:03:16;;;;;;;91.82;32.00;;;6.10;99.90;;;;;;4976870;28;20050;-55
2022/01/13 06:05:42;;;;;;;85.85;29.45;;;6.20;99.90;;;;;;4989454;28;20571;-56
2022/01/13 06:08:08;;;;;;;86.35;30.42;;;6.20;99.90;;;;;;4987876;28;20045;-56
2022/01/13 06:10:34;;;;;;;78.57;30.00;;;6.20;99.90;;;;;;4973711;28;20049;-56
2022/01/13 06:12:59;;;;;;;79.55;30.88;;;6.20;99.90;;;;;;4959575;28;20042;-55
2022/01/13 06:15:26;;;;;;;83.28;31.02;;;6.30;99.90;;;;;;4980600;28;20117;-56
2022/01/13 06:17:54;;;;;;;75.85;31.25;;;6.30;99.90;;;;;;4962973;28;20038;-56
2022/01/13 06:20:21;;;;;;;80.43;30.33;;;6.30;99.90;;;;;;4976611;28;20081;-54
2022/01/13 06:22:48;;;;;;;82.72;30.95;;;6.30;99.90;;;;;;4967270;28;20038;-57
2022/01/13 06:25:15;;;;;;;80.07;30.90;;;6.30;99.90;;;;;;4971692;28;20057;-57
2022/01/13 06:27:41;;;;;;;82.20;31.60;;;6.30;99.90;;;;;;4978404;28;20315;-54
2022/01/13 06:30:10;;;;;;;83.53;31.67;;;6.30;99.90;;;;;;4975527;28;20304;-57
2022/01/13 06:32:37;;;;;;;74.68;30.45;;;6.40;99.90;;;;;;4974647;28;20050;-57
2022/01/13 06:35:04;;;;;;;67.03;29.33;;;6.40;99.90;;;;;;4972700;28;20053;-56
2022/01/13 06:37:30;;;;;;;81.07;32.13;;;6.40;99.90;;;;;;4993367;28;20348;-56
2022/01/13 06:39:56;;;;;;;76.53;32.47;;;6.40;99.90;;;;;;4995807;28;20484;-57
2022/01/13 06:42:22;;;;;;;82.35;32.80;;;6.50;99.90;;;;;;4995277;28;20038;-55
2022/01/13 06:44:48;;;;;;;78.55;32.20;;;6.50;99.90;;;;;;4982058;28;20045;-57
2022/01/13 06:47:13;;;;;;;83.53;30.83;;;6.50;99.90;;;;;;4973591;28;20084;-55
2022/01/13 06:49:39;;;;;;;73.53;31.08;;;6.60;99.90;;;;;;4952428;28;20385;-56
2022/01/13 06:52:06;;;;;;;96.50;31.55;;;6.60;99.90;;;;;;4956334;28;20046;-57
2022/01/13 06:54:33;;;;;;;85.30;32.45;;;6.60;99.90;;;;;;4973233;28;20304;-56
2022/01/13 06:56:59;;;;;;;79.53;33.20;;;6.60;99.90;;;;;;4970440;28;20372;-58
2022/01/13 06:59:24;;;;;;;76.65;32.15;;;6.60;99.90;;;;;;4972857;28;20046;-56
2022/01/13 07:01:50;;;;;;;87.57;33.30;;;6.60;99.90;;;;;;4977473;28;20034;-57
2022/01/13 07:04:17;;;;;;;79.50;31.35;;;6.60;99.90;;;;;;4969656;28;20053;-56
2022/01/13 07:06:44;;;;;;;86.35;32.38;;;6.60;99.90;;;;;;4976651;28;20046;-56
2022/01/13 07:09:13;;;;;;;70.82;30.35;;;6.60;99.90;;;;;;4959933;28;21518;-55
2022/01/13 07:11:39;;;;;;;80.60;31.38;;;6.70;99.90;;;;;;4951188;28;20397;-57
2022/01/13 07:14:05;;;;;;;81.45;31.73;;;6.60;99.90;;;;;;4968050;28;20129;-57
2022/01/13 07:16:31;;;;;;;95.68;31.13;;;6.60;99.90;;;;;;4972926;28;20049;-53
2022/01/13 07:18:57;;;;;;;70.20;28.30;;;6.60;99.90;;;;;;4980271;28;20106;-57
2022/01/13 07:21:26;;;;;;;81.85;31.80;;;6.60;99.90;;;;;;4984226;28;20039;-57
2022/01/13 07:23:52;;;;;;;77.20;32.10;;;6.60;99.90;;;;;;4988569;28;20041;-54
2022/01/13 07:26:18;;;;;;;92.93;32.08;;;6.60;99.90;;;;;;4970966;28;20150;-55
2022/01/13 07:28:44;;;;;;;84.18;32.03;;;6.60;99.90;;;;;;4970015;28;20506;-53
2022/01/13 07:31:09;;;;;;;81.80;30.60;;;6.60;99.90;;;;;;4975743;28;20149;-58
2022/01/13 07:33:35;;;;;;;84.45;31.00;;;6.70;99.90;;;;;;4970476;28;20042;-57
2022/01/13 07:36:01;;;;;;;84.18;32.88;;;6.70;99.90;;;;;;5062581;28;20033;-53
2022/01/13 07:38:27;;;;;;;88.53;31.88;;;6.70;99.90;;;;;;4961898;28;20050;-59
2022/01/13 07:40:52;;;;;;;86.05;32.60;;;6.70;99.90;;;;;;4960164;28;20129;-53
2022/01/13 07:43:22;;;;;;;82.15;29.13;;;6.70;99.90;;;;;;4957969;28;20046;-55
2022/01/13 07:45:49;;;;;;;79.13;31.10;;;6.70;99.90;;;;;;4957689;28;20035;-57
2022/01/13 07:48:16;;;;;;;91.88;33.67;;;6.70;99.90;;;;;;4974831;28;20117;-57
2022/01/13 07:50:42;;;;;;;89.80;32.08;;;6.70;99.90;;;;;;4974617;28;20053;-55
2022/01/13 07:53:07;;;;;;;76.75;31.90;;;6.70;99.90;;;;;;4983846;28;20446;-55
2022/01/13 07:55:33;;;;;;;88.60;33.35;;;6.70;99.90;;;;;;4979039;28;20037;-57
2022/01/13 07:57:59;;;;;;;76.28;31.52;;;6.70;99.90;;;;;;4977247;28;20034;-56
2022/01/13 08:00:25;;;;;;;94.40;33.42;;;6.70;99.90;;;;;;4960161;28;20505;-57
2022/01/13 08:02:50;;;;;;;86.47;32.13;;;6.70;99.90;;;;;;4972045;28;20053;-58
2022/01/13 08:05:16;;;;;;;90.45;32.63;;;6.70;99.90;;;;;;4963746;28;20038;-55
2022/01/13 08:07:42;;;;;;;93.18;33.70;;;6.70;99.90;;;;;;4982723;28;20075;-55
2022/01/13 08:10:09;;;;;;;92.45;32.83;;;6.70;99.90;;;;;;4976752;28;20453;-56
2022/01/13 08:12:35;;;;;;;89.38;33.83;;;6.70;99.90;;;;;;4961575;28;20054;-56
2022/01/13 08:15:00;;;;;;;80.30;32.53;;;6.70;99.90;;;;;;4998093;28;20041;-56
2022/01/13 08:20:10;;;;;;;82.88;32.53;;;6.70;99.90;;;;;;4962074;28;21184;-56
2022/01/13 08:22:36;;;;;;;86.35;32.95;;;6.70;99.90;;;;;;4966631;28;21053;-56
2022/01/13 08:25:03;;;;;;;85.10;31.38;;;6.70;99.90;;;;;;4961857;28;20034;-56
2022/01/13 08:27:28;;;;;;;83.65;32.63;;;6.70;99.90;;;;;;4968469;28;20046;-57
2022/01/13 08:29:54;;;;;;;79.63;33.00;;;6.70;99.90;;;;;;4956087;28;20084;-55
2022/01/13 08:32:20;;;;;;;84.45;31.80;;;6.80;99.90;;;;;;4969296;28;20720;-57
2022/01/13 08:34:46;;;;;;;85.05;34.15;;;6.80;99.90;;;;;;4981283;28;20061;-56
2022/01/13 08:37:12;;;;;;;87.97;33.45;;;6.70;99.90;;;;;;4967017;28;20148;-57
2022/01/13 08:39:43;;;;;;;93.70;34.67;;;6.80;99.90;;;;;;4952718;28;20129;-56
2022/01/13 08:42:11;;;;;;;77.53;34.10;;;6.80;99.90;;;;;;4982925;28;20054;-57
2022/01/13 08:44:36;;;;;;;84.35;33.10;;;6.70;99.90;;;;;;4967749;28;20116;-57
2022/01/13 08:47:02;;;;;;;81.60;33.72;;;6.80;99.90;;;;;;4963086;28;20110;-56
2022/01/13 08:49:28;;;;;;;66.57;30.55;;;6.80;99.90;;;;;;4953632;28;20057;-58
2022/01/13 08:51:55;;;;;;;74.50;31.95;;;6.80;99.90;;;;;;4973605;28;20066;-57
2022/01/13 08:54:22;;;;;;;78.32;33.00;;;6.80;99.90;;;;;;4982106;28;20049;-57
2022/01/13 08:56:48;;;;;;;84.03;33.17;;;6.80;99.90;;;;;;4992762;28;20038;-56
2022/01/13 08:59:14;;;;;;;79.90;32.78;;;6.80;99.90;;;;;;4974588;28;20046;-54
2022/01/13 09:01:40;;;;;;;75.65;33.55;;;6.80;99.90;;;;;;4972884;28;20049;-54
2022/01/13 09:04:06;;;;;;;77.97;31.60;;;6.80;99.90;;;;;;4981354;28;20191;-53
2022/01/13 09:06:32;;;;;;;81.55;32.85;;;6.80;99.90;;;;;;4985356;28;20049;-55
2022/01/13 09:08:58;;;;;;;77.55;32.97;;;6.80;99.90;;;;;;4968106;28;20416;-57
2022/01/13 09:11:24;;;;;;;79.28;34.33;;;6.90;99.90;;;;;;4974660;28;20041;-55
2022/01/13 09:13:56;;;;;;;81.03;34.58;;;6.90;99.90;;;;;;4978164;28;20049;-56
2022/01/13 09:16:24;;;;;;;76.65;32.10;;;6.90;99.90;;;;;;4978079;28;20081;-54
2022/01/13 09:21:27;;;;;;;69.78;30.85;;;6.90;99.90;;;;;;4973433;28;20042;-57
2022/01/13 09:23:53;;;;;;;70.28;31.50;;;7.00;99.90;;;;;;4977520;28;20093;-57
2022/01/13 09:26:20;;;;;;;71.65;31.13;;;6.90;99.90;;;;;;4951577;28;20079;-55
2022/01/13 09:28:45;;;;;;;72.10;32.70;;;6.90;99.90;;;;;;4989017;28;20080;-56
2022/01/13 09:31:11;;;;;;;75.13;33.08;;;7.00;99.90;;;;;;4974478;28;20125;-58
2022/01/13 09:33:37;;;;;;;74.60;32.47;;;7.00;99.90;;;;;;4980219;28;20045;-57
2022/01/13 09:36:06;;;;;;;73.10;32.30;;;7.00;99.90;;;;;;4991030;28;20385;-57
2022/01/13 09:38:33;;;;;;;71.28;32.35;;;7.00;99.90;;;;;;4957611;28;20134;-56
2022/01/13 09:40:58;;;;;;;71.55;32.83;;;7.00;99.90;;;;;;4975796;28;20581;-57
2022/01/13 09:43:26;;;;;;;77.88;33.05;;;7.00;99.90;;;;;;5027143;28;20046;-55
2022/01/13 09:45:55;;;;;;;84.50;32.30;;;7.00;99.90;;;;;;4985202;28;20118;-57
2022/01/13 09:48:20;;;;;;;79.63;33.60;;;7.00;99.90;;;;;;4998078;28;20413;-56
2022/01/13 09:50:48;;;;;;;69.53;31.70;;;7.00;99.90;;;;;;4971216;28;20045;-58
2022/01/13 09:53:15;;;;;;;65.38;31.63;;;7.00;99.90;;;;;;4983448;28;20509;-56
2022/01/13 09:55:44;;;;;;;76.90;32.83;;;7.00;99.90;;;;;;4973703;28;20381;-57
2022/01/13 09:58:11;;;;;;;81.10;34.97;;;7.00;99.90;;;;;;4982955;28;21787;-57
2022/01/13 10:00:43;;;;;;;77.07;32.30;;;7.10;99.90;;;;;;4985329;28;20056;-57
2022/01/13 10:03:18;;;;;;;65.40;31.17;;;7.10;99.90;;;;;;4974240;28;20046;-57
2022/01/13 10:05:53;;;;;;;74.70;32.83;;;7.10;99.90;;;;;;4981994;28;20142;-57
2022/01/13 10:08:38;;;;;;;82.97;33.72;;;7.10;99.90;;;;;;4960969;28;20074;-58
2022/01/13 10:11:26;;;;;;;79.55;32.28;;;7.10;99.90;;;;;;4975753;28;20038;-57
2022/01/13 10:16:55;;;;;;;83.63;35.13;;;7.20;99.90;;;;;;4965946;28;20581;-58
2022/01/13 10:19:42;;;;;;;73.32;34.40;;;7.20;99.90;;;;;;4973843;28;20041;-56
2022/01/13 10:22:11;;;;;;;71.60;32.22;;;7.20;99.90;;;;;;4971644;28;20049;-58
2022/01/13 10:24:46;;;;;;;90.35;35.05;;;7.20;99.90;;;;;;4972761;28;20215;-57
2022/01/13 10:27:33;;;;;;;63.65;30.85;;;7.20;99.90;;;;;;4994720;28;20057;-55
2022/01/13 10:30:15;;;;;;;74.68;32.85;;;7.30;99.90;;;;;;4976437;28;20391;-59
2022/01/13 10:32:42;;;;;;;67.63;31.42;;;7.30;99.90;;;;;;4990971;28;20061;-56
2022/01/13 10:35:10;;;;;;;62.75;31.85;;;7.30;99.90;;;;;;4977002;28;20041;-58
2022/01/13 10:37:41;;;;;;;72.05;31.98;;;7.30;99.90;;;;;;4970893;28;20122;-57
2022/01/13 10:40:22;;;;;;;62.95;31.55;;;7.30;99.90;;;;;;4968225;28;20046;-58
2022/01/13 10:45:36;;;;;;;65.75;31.75;;;7.40;99.90;;;;;;4976307;28;20191;-56
2022/01/13 10:48:04;;;;;;;66.68;32.13;;;7.40;99.90;;;;;;4957785;28;20042;-58
2022/01/13 10:50:41;;;;;;;70.95;32.05;;;7.40;99.90;;;;;;4962266;28;20081;-53
2022/01/13 10:53:13;;;;;;;60.67;31.40;;;7.40;99.90;;;;;;4970727;28;20042;-57
2022/01/13 10:55:52;;;;;;;61.30;32.47;;;7.40;99.90;;;;;;4991327;28;20053;-56
2022/01/13 10:58:25;;;;;;;63.20;31.73;;;7.30;99.90;;;;;;4971474;28;20062;-59
2022/01/13 11:00:52;;;;;;;73.20;33.60;;;7.40;99.90;;;;;;4977943;28;20034;-57
2022/01/13 11:03:21;;;;;;;58.83;31.42;;;7.40;99.90;;;;;;4982207;28;20415;-56
2022/01/13 11:05:49;;;;;;;60.78;31.25;;;7.30;99.90;;;;;;4974766;28;20054;-58
2022/01/13 11:08:27;;;;;;;64.32;31.30;;;7.30;99.90;;;;;;4998019;23;20065;-60
2022/01/13 11:10:59;;;;;;;62.60;31.95;;;7.30;99.90;;;;;;4951468;28;20082;-65
2022/01/13 11:13:27;;;;;;;70.30;31.45;;;7.30;99.90;;;;;;4929923;28;20046;-62
2022/01/13 11:15:57;;;;;;;62.55;32.53;;;7.30;99.90;;;;;;4936632;28;20125;-62
2022/01/13 11:18:29;;;;;;;60.17;30.70;;;7.30;99.90;;;;;;4952026;28;20516;-62
2022/01/13 11:20:57;;;;;;;63.88;31.35;;;7.30;99.90;;;;;;4931717;28;20082;-60
2022/01/13 11:23:24;;;;;;;64.75;30.15;;;7.30;99.90;;;;;;4946953;28;20043;-64
2022/01/13 11:25:53;;;;;;;61.65;29.58;;;7.30;99.90;;;;;;4963558;28;20071;-62
2022/01/13 11:28:19;;;;;;;60.70;31.70;;;7.30;99.90;;;;;;4930140;28;20260;-60
2022/01/13 11:30:46;;;;;;;50.97;27.75;;;7.30;99.90;;;;;;4908704;28;20070;-59
2022/01/13 11:33:12;;;;;;;51.17;28.60;;;7.30;99.90;;;;;;4939093;28;20045;-60
2022/01/13 11:35:45;;;;;;;58.50;29.42;;;7.30;99.90;;;;;;4939934;28;20039;-61
2022/01/13 11:38:13;;;;;;;58.50;29.60;;;7.30;99.90;;;;;;4968494;28;20038;-63
2022/01/13 11:40:46;;;;;;;57.45;31.00;;;7.40;99.90;;;;;;4935204;28;20455;-60
2022/01/13 11:43:38;;;;;;;48.92;28.33;;;7.40;99.90;;;;;;4947022;28;20035;-61
2022/01/13 11:46:13;;;;;;;60.45;30.48;;;7.40;99.90;;;;;;4938005;28;20051;-61
2022/01/13 11:48:55;;;;;;;55.70;29.92;;;7.40;99.90;;;;;;4962422;28;20129;-62
2022/01/13 11:51:21;;;;;;;55.35;26.98;;;7.50;99.90;;;;;;4937888;28;20630;-61
2022/01/13 11:54:02;;;;;;;61.45;27.63;;;7.50;99.90;;;;;;4953825;28;20061;-62
2022/01/13 11:56:29;;;;;;;63.03;29.02;;;7.50;99.90;;;;;;4944225;28;20046;-61
2022/01/13 11:58:55;;;;;;;61.13;29.00;;;7.50;99.90;;;;;;4950953;28;20500;-61
2022/01/13 12:01:30;;;;;;;63.00;27.58;;;7.60;99.90;;;;;;4914871;28;20035;-60
2022/01/13 12:03:58;;;;;;;55.42;28.80;;;7.60;99.90;;;;;;4924276;28;20058;-63
2022/01/13 12:06:46;;;;;;;54.60;27.75;;;7.70;99.90;;;;;;4956720;28;20469;-60
2022/01/13 12:09:32;;;;;;;54.55;27.33;;;7.70;99.90;;;;;;4952431;28;20074;-61
2022/01/13 12:12:00;;;;;;;51.90;25.95;;;7.80;99.90;;;;;;4933808;28;20047;-62
2022/01/13 12:14:28;;;;;;;51.40;27.05;;;7.80;99.90;;;;;;4953194;28;20117;-59
2022/01/13 12:17:08;;;;;;;49.00;24.80;;;7.80;99.90;;;;;;4949747;28;20058;-62
2022/01/13 12:19:47;;;;;;;48.20;26.08;;;7.90;99.90;;;;;;4956735;28;20493;-64
2022/01/13 12:22:35;;;;;;;43.83;25.00;;;8.00;99.90;;;;;;4923906;28;20700;-62
2022/01/13 12:25:03;;;;;;;54.97;23.95;;;8.00;99.90;;;;;;4940314;28;20047;-61
2022/01/13 12:27:40;;;;;;;43.58;23.83;;;8.00;99.90;;;;;;4942247;28;20056;-63
2022/01/13 12:30:10;;;;;;;37.67;23.65;;;8.10;99.90;;;;;;4945796;28;20496;-61
2022/01/13 12:32:47;;;;;;;43.83;22.98;;;8.10;99.90;;;;;;4967523;28;20081;-61
2022/01/13 12:35:22;;;;;;;48.90;25.13;;;8.20;99.90;;;;;;4969810;28;20102;-61
2022/01/13 12:38:06;;;;;;;43.65;23.10;;;8.20;99.90;;;;;;4952848;28;20097;-63
2022/01/13 12:41:02;;;;;;;42.40;22.17;;;8.20;99.90;;;;;;4963118;28;20035;-62
2022/01/13 12:46:03;;;;;;;46.45;22.63;;;8.20;99.90;;;;;;4970305;28;20054;-60
2022/01/13 12:48:30;;;;;;;42.55;21.95;;;8.20;99.90;;;;;;4956701;28;20055;-62
2022/01/13 12:50:57;;;;;;;41.45;21.17;;;8.20;99.90;;;;;;4969741;28;20105;-61
2022/01/13 12:53:27;;;;;;;41.30;21.30;;;8.20;99.90;;;;;;4937632;28;20372;-63
2022/01/13 12:56:05;;;;;;;43.28;22.05;;;8.20;99.90;;;;;;4960853;28;20055;-61
2022/01/13 12:58:36;;;;;;;37.75;19.83;;;8.20;99.90;;;;;;4947817;28;20046;-61
2022/01/13 13:01:12;;;;;;;40.70;20.23;;;8.20;99.90;;;;;;4992985;28;20039;-59
2022/01/13 13:03:39;;;;;;;37.65;20.05;;;8.20;99.90;;;;;;4944685;28;20146;-63
2022/01/13 13:06:08;;;;;;;42.40;19.55;;;8.20;99.90;;;;;;4945510;28;20044;-60
2022/01/13 13:08:34;;;;;;;38.75;19.77;;;8.30;99.90;;;;;;4958318;28;20054;-60
2022/01/13 13:11:01;;;;;;;37.63;19.77;;;8.30;99.90;;;;;;4955257;28;20043;-61
2022/01/13 13:13:33;;;;;;;39.05;19.48;;;8.30;99.90;;;;;;4956203;28;20047;-60
2022/01/13 13:16:06;;;;;;;39.63;20.67;;;8.30;99.90;;;;;;4961165;28;20055;-62
2022/01/13 13:18:33;;;;;;;37.60;19.38;;;8.40;99.90;;;;;;4938299;28;20047;-60
2022/01/13 13:21:01;;;;;;;33.35;20.00;;;8.30;99.90;;;;;;4952310;28;20493;-61
2022/01/13 13:23:32;;;;;;;38.60;19.13;;;8.30;99.90;;;;;;4916194;28;20659;-61